Airfield :
LOGIN :

Register | Disclaimer

   EN    FR    IT 

 










Legend :    VFR   Marginal VFR   IFR   Intensive IFR   Very Intensive IFR
Visi :
Ceiling :
>= 8 km
>= 3000ft
5 to 8 km
1000 to 3000 ft
1500m to 5 km
500 to 1000 ft
800 to 1500m
200 to 500 ft
< 800m
< 200 ft
Symbols :   Thunderstorms  Fog  Heavy snow  Heavy precipitations  Wind > 20 kt
SIGMETs :     Misc.  Thunderstorms  Icing  Turbulence  Mountain Waves  Volcanic Ashes






- Airport Elevation : 412 ft
- IATA code : ORE


LFOJ - Orleans

CURRENT METAR :
  • 241100Z AUTO 20017KT 6000 -RADZ BKN009 OVC016 15/13 Q1015

EXPIRED METARs :
  • 241030Z AUTO 20017KT 9999 -DZ BKN009 OVC024 14/13 Q1015
  • 241000Z AUTO 20017KT 8000 -RA OVC011 14/13 Q1015
  • 240930Z AUTO 19017KT 9999 OVC011 14/12 Q1015
  • 240900Z AUTO 20016KT 9999 OVC010 14/12 Q1015
  • 240830Z AUTO 19016KT 9999 OVC009 14/12 Q1015

TAF TAF LFOJ
Valid from the 23 at 15:00 until the 24 at 15:00 UTC


231400Z 2315/2415 24010KT 9999 SCT025 TX18/2315Z TN11/2404Z
PROB30
TEMPO 2317/2319 4900 -SHRA BKN020TCU
BECMG 2400/2402 4000 -RADZ OVC004
BECMG 2406/2408 21020G30KT 9999 NSW OVC008
BECMG 2412/2414 BKN018



MET'MAP, your aeronautical weather chart ! - Copyright ORBIFLY December 2007 - Disclaimer

ORBIFLY MET'MAP TEAM :

Programming & Development : Alexandra Zaïnal
Concept & original design : Baudouin d'Aumeries
Assistance for programming : Marc-Olivier Méhu
Technical & hardware support : Manuel Goepfert

Contact : metmap@orbifly.com




SOURCES & CREDITS :

   NOAA